createdAt,value
2019-03-31T00:01:19.030Z,25
2019-03-31T00:06:21.844Z,21
2019-03-31T00:11:23.974Z,21
2019-03-31T00:16:26.437Z,19
2019-03-31T00:21:28.903Z,19
2019-03-31T00:26:31.346Z,19
2019-03-31T00:31:33.906Z,20
2019-03-31T00:36:36.714Z,17
2019-03-31T00:41:38.774Z,16
2019-03-31T00:46:41.202Z,17
2019-03-31T00:51:43.658Z,16
2019-03-31T00:56:46.133Z,16
2019-03-31T01:01:48.703Z,15
2019-03-31T01:06:51.341Z,17
2019-03-31T01:11:53.540Z,16
2019-03-31T01:16:56.052Z,17
2019-03-31T01:21:58.449Z,17
2019-03-31T01:27:00.981Z,17
2019-03-31T01:32:03.517Z,16
2019-03-31T01:37:06.308Z,15
2019-03-31T01:42:08.317Z,17
2019-03-31T01:47:10.758Z,16
2019-03-31T01:52:13.288Z,16
2019-03-31T01:57:15.684Z,17
2019-03-31T02:02:18.288Z,15
2019-03-31T02:07:21.017Z,18
2019-03-31T02:12:23.115Z,16
2019-03-31T02:17:25.576Z,16
2019-03-31T02:22:28.075Z,16
2019-03-31T02:27:30.515Z,17
2019-03-31T02:32:33.062Z,16
2019-03-31T02:37:35.410Z,17
2019-03-31T02:42:37.883Z,16
2019-03-31T02:47:40.352Z,15
2019-03-31T02:52:42.913Z,14
2019-03-31T02:57:45.278Z,14
2019-03-31T03:02:47.753Z,16
2019-03-31T03:07:50.633Z,16
2019-03-31T03:12:52.698Z,16
2019-03-31T03:17:55.183Z,14
2019-03-31T03:22:57.608Z,16
2019-03-31T03:28:00.260Z,14
2019-03-31T03:33:14.276Z,16
2019-03-31T03:38:05.804Z,14
2019-03-31T03:43:07.547Z,15
2019-03-31T03:48:09.936Z,16
2019-03-31T03:53:12.425Z,15
2019-03-31T03:58:15.014Z,14
2019-03-31T04:03:29.541Z,15
2019-03-31T04:08:24.835Z,14
2019-03-31T04:13:22.293Z,15
2019-03-31T04:18:29.762Z,14
2019-03-31T04:23:27.234Z,14
2019-03-31T04:28:29.662Z,14
2019-03-31T04:33:48.972Z,14
2019-03-31T04:38:35.019Z,13
2019-03-31T04:43:37.124Z,14
2019-03-31T04:48:39.608Z,14
2019-03-31T04:53:41.994Z,14
2019-03-31T04:58:44.434Z,14
2019-03-31T05:03:46.936Z,14
2019-03-31T05:08:49.368Z,13
2019-03-31T05:13:51.971Z,14
2019-03-31T05:18:54.293Z,13
2019-03-31T05:23:57.130Z,14
2019-03-31T05:28:59.234Z,15
2019-03-31T05:34:01.693Z,18
2019-03-31T05:39:04.163Z,20
2019-03-31T05:44:06.952Z,17
2019-03-31T05:49:09.084Z,16
2019-03-31T05:54:11.848Z,17
2019-03-31T05:59:14.005Z,20
2019-03-31T06:04:16.469Z,19
2019-03-31T06:09:19.005Z,14
2019-03-31T06:14:21.405Z,14
2019-03-31T06:19:23.834Z,14
2019-03-31T06:24:26.574Z,13
2019-03-31T06:29:28.740Z,14
2019-03-31T06:34:31.197Z,14
2019-03-31T06:39:34.285Z,13
2019-03-31T06:44:38.072Z,11
2019-03-31T06:49:38.592Z,11
2019-03-31T06:54:41.356Z,12
2019-03-31T06:59:43.594Z,10
2019-03-31T07:04:45.982Z,10
2019-03-31T07:09:48.431Z,11
2019-03-31T07:14:50.877Z,10
2019-03-31T07:19:53.361Z,10
2019-03-31T07:24:56.099Z,10
2019-03-31T07:29:58.245Z,11
2019-03-31T07:35:00.724Z,10
2019-03-31T07:40:03.589Z,10
2019-03-31T07:45:05.676Z,12
2019-03-31T07:50:08.140Z,12
2019-03-31T07:55:10.824Z,13
2019-03-31T08:00:13.001Z,14
2019-03-31T08:05:15.559Z,20
2019-03-31T08:10:18.143Z,20
2019-03-31T08:15:20.389Z,20
2019-03-31T08:20:22.847Z,22
2019-03-31T08:25:25.621Z,20
2019-03-31T08:30:27.761Z,22
2019-03-31T08:35:30.223Z,21
2019-03-31T08:40:32.728Z,23
2019-03-31T08:45:35.170Z,22
2019-03-31T08:50:37.620Z,27
2019-03-31T08:55:40.350Z,28
2019-03-31T09:00:42.603Z,26
2019-03-31T09:05:44.992Z,27
2019-03-31T09:10:47.472Z,28
2019-03-31T09:15:49.905Z,30
2019-03-31T09:20:52.374Z,29
2019-03-31T09:25:55.122Z,27
2019-03-31T09:30:57.326Z,30
2019-03-31T09:35:59.749Z,29
2019-03-31T09:41:02.217Z,31
2019-03-31T09:46:04.701Z,30
2019-03-31T09:51:07.165Z,29
2019-03-31T09:56:09.890Z,28
2019-03-31T10:01:12.092Z,32
2019-03-31T10:06:14.523Z,32
2019-03-31T10:11:17.007Z,31
2019-03-31T10:16:19.489Z,31
2019-03-31T10:21:21.926Z,27
2019-03-31T10:26:31.558Z,29
2019-03-31T10:31:26.815Z,27
2019-03-31T10:36:43.478Z,26
2019-03-31T10:41:31.756Z,27
2019-03-31T10:46:34.215Z,26
2019-03-31T10:51:36.777Z,28
2019-03-31T10:56:39.127Z,28
2019-03-31T11:01:41.576Z,29
2019-03-31T11:06:57.914Z,30
2019-03-31T11:11:46.521Z,30
2019-03-31T11:16:48.968Z,31
2019-03-31T11:21:51.468Z,30
2019-03-31T11:26:53.949Z,30
2019-03-31T11:31:56.349Z,30
2019-03-31T11:37:12.433Z,31
2019-03-31T11:42:01.269Z,33
2019-03-31T11:47:03.771Z,32
2019-03-31T11:52:06.242Z,31
2019-03-31T11:57:08.737Z,30
2019-03-31T12:02:11.126Z,32
2019-03-31T12:07:27.141Z,33
2019-03-31T12:12:16.027Z,32
2019-03-31T12:17:18.513Z,33
2019-03-31T12:22:20.993Z,32
2019-03-31T12:27:23.409Z,31
2019-03-31T12:32:25.887Z,33
2019-03-31T12:37:41.510Z,33
2019-03-31T12:42:30.812Z,31
2019-03-31T12:47:33.234Z,34
2019-03-31T12:52:46.000Z,32
2019-03-31T12:57:38.162Z,32
2019-03-31T13:02:40.615Z,32
2019-03-31T13:07:55.607Z,32
2019-03-31T13:12:45.560Z,34
2019-03-31T13:17:47.992Z,33
2019-03-31T13:22:50.553Z,32
2019-03-31T13:27:53.010Z,32
2019-03-31T13:32:55.370Z,31
2019-03-31T13:38:10.198Z,32
2019-03-31T13:43:00.291Z,30
2019-03-31T13:48:02.734Z,28
2019-03-31T13:53:05.381Z,32
2019-03-31T13:58:08.839Z,31
2019-03-31T14:03:10.132Z,33
2019-03-31T14:08:24.902Z,29
2019-03-31T14:13:15.043Z,28
2019-03-31T14:18:17.483Z,28
2019-03-31T14:23:19.948Z,28
2019-03-31T14:28:22.421Z,27
2019-03-31T14:33:24.862Z,27
2019-03-31T14:38:39.344Z,25
2019-03-31T14:43:29.808Z,26
2019-03-31T14:48:32.235Z,25
2019-03-31T14:53:34.701Z,26
2019-03-31T14:58:37.264Z,26
2019-03-31T15:03:40.108Z,29
2019-03-31T15:08:53.672Z,29
2019-03-31T15:13:44.534Z,27
2019-03-31T15:18:47.003Z,27
2019-03-31T15:23:49.451Z,26
2019-03-31T15:28:51.935Z,27
2019-03-31T15:39:08.043Z,26
2019-03-31T15:43:59.291Z,28
2019-03-31T15:49:01.735Z,24
2019-03-31T15:54:04.208Z,25
2019-03-31T15:59:06.708Z,23
2019-03-31T16:04:09.320Z,21
2019-03-31T16:09:22.624Z,23
2019-03-31T16:14:14.124Z,23
2019-03-31T16:19:16.510Z,21
2019-03-31T16:24:19.020Z,22
2019-03-31T16:29:21.471Z,22
2019-03-31T16:34:23.866Z,23
2019-03-31T16:39:36.797Z,21
2019-03-31T16:44:28.775Z,32
2019-03-31T16:49:31.283Z,22
2019-03-31T16:54:33.674Z,24
2019-03-31T16:59:36.162Z,24
2019-03-31T17:04:38.659Z,25
2019-03-31T17:09:51.126Z,23
2019-03-31T17:14:43.532Z,22
2019-03-31T17:19:46.011Z,22
2019-03-31T17:24:48.469Z,24
2019-03-31T17:29:50.953Z,24
2019-03-31T17:34:53.371Z,25
2019-03-31T17:40:05.695Z,25
2019-03-31T17:44:58.254Z,23
2019-03-31T17:50:00.784Z,25
2019-03-31T17:55:03.165Z,25
2019-03-31T18:00:05.737Z,23
2019-03-31T18:05:08.080Z,25
2019-03-31T18:10:20.391Z,21
2019-03-31T18:15:13.013Z,20
2019-03-31T18:20:15.492Z,19
2019-03-31T18:25:17.981Z,20
2019-03-31T18:30:20.425Z,20
2019-03-31T18:35:22.839Z,16
2019-03-31T18:40:34.620Z,12
2019-03-31T18:45:27.757Z,11
2019-03-31T18:50:30.199Z,11
2019-03-31T18:55:32.701Z,10
2019-03-31T19:00:35.167Z,11
2019-03-31T19:05:37.600Z,12
2019-03-31T19:10:49.039Z,9
2019-03-31T19:15:42.489Z,9
2019-03-31T19:20:44.958Z,8
2019-03-31T19:25:47.399Z,9
2019-03-31T19:30:49.925Z,8
2019-03-31T19:35:52.372Z,7
2019-03-31T19:41:03.652Z,7
2019-03-31T19:45:57.241Z,7
2019-03-31T19:50:59.833Z,8
2019-03-31T19:56:07.633Z,7
2019-03-31T20:01:04.641Z,7
2019-03-31T20:06:07.056Z,7
2019-03-31T20:11:09.820Z,7
2019-03-31T20:16:12.047Z,8
2019-03-31T20:21:14.491Z,9
2019-03-31T20:26:16.881Z,7
2019-03-31T20:31:19.356Z,8
2019-03-31T20:36:21.888Z,8
2019-03-31T20:41:24.564Z,7
2019-03-31T20:46:26.713Z,7
2019-03-31T20:51:29.228Z,8
2019-03-31T20:56:31.694Z,7
2019-03-31T21:01:34.101Z,7
2019-03-31T21:06:36.906Z,7
2019-03-31T21:11:39.283Z,8
2019-03-31T21:16:41.487Z,7
2019-03-31T21:21:43.925Z,6
2019-03-31T21:26:46.488Z,7
2019-03-31T21:31:48.885Z,7
2019-03-31T21:36:51.550Z,7
2019-03-31T21:41:54.037Z,7
2019-03-31T21:46:56.215Z,6
2019-03-31T21:51:58.707Z,7
2019-03-31T21:57:01.143Z,6
2019-03-31T22:02:03.649Z,6
2019-03-31T22:12:08.789Z,6
2019-03-31T22:17:10.960Z,7
2019-03-31T22:22:13.405Z,7
2019-03-31T22:27:16.006Z,6
2019-03-31T22:32:18.320Z,7
2019-03-31T22:37:20.798Z,8
2019-03-31T22:42:23.533Z,8
2019-03-31T22:47:25.700Z,7
2019-03-31T22:52:28.269Z,8
2019-03-31T22:57:30.600Z,7
2019-03-31T23:02:33.076Z,7
2019-03-31T23:07:35.554Z,6
2019-03-31T23:12:38.014Z,7
2019-03-31T23:17:40.455Z,7
2019-03-31T23:22:43.025Z,6
2019-03-31T23:27:45.378Z,7
2019-03-31T23:32:47.855Z,6
2019-03-31T23:37:50.413Z,8
2019-03-31T23:42:52.787Z,7
2019-03-31T23:47:55.246Z,6
2019-03-31T23:52:57.709Z,7
2019-03-31T23:58:00.174Z,7
